Kalar Kahar Weather



Kalar Kahar's Current Weather

Temprature 22.61o clear sky

clear sky

Rain: 0 %

Min Temprature22.61o
Max Temprature22.61o
Humidity50
Wind Speed5.01 m/h
Sun Rise05:05:24
Sun Set19:06:56
Current Time: 24-May-2022 08:18:29
Lat/Lon: 32.7818, 72.6994




Kalar Kahar's Geo Location



Kalar Kahar's Weather Forecast

Time Overall Temp Min Temp Max Temp Humidity Wind Speed Rain
24-May-2022 (Tue)
11:00:00 clear sky 23.940 23.940 26.600 46 3.65 m/h 0 %
14:00:00 clear sky 27.530 27.530 29.990 33 2.7 m/h 0 %
17:00:00 clear sky 30.930 30.930 30.930 22 2.75 m/h 0 %
20:00:00 clear sky 27.290 27.290 27.290 29 2.69 m/h 0 %
23:00:00 clear sky 25.800 25.800 25.800 32 1.92 m/h 0 %
25-May-2022 (Wed)
02:00:00 clear sky 24.630 24.630 24.630 34 1.29 m/h 0 %
05:00:00 clear sky 23.570 23.570 23.570 35 0.09 m/h 0 %
08:00:00 clear sky 29.640 29.640 29.640 23 0.83 m/h 0 %
11:00:00 clear sky 33.230 33.230 33.230 19 3.51 m/h 0 %
14:00:00 clear sky 35.220 35.220 35.220 17 4.37 m/h 0 %
17:00:00 clear sky 34.770 34.770 34.770 18 4.62 m/h 0 %
20:00:00 clear sky 30.600 30.600 30.600 24 2.46 m/h 0 %
23:00:00 clear sky 29.580 29.580 29.580 24 2.6 m/h 0 %
26-May-2022 (Thu)
02:00:00 clear sky 28.580 28.580 28.580 24 1.97 m/h 0 %
05:00:00 clear sky 27.130 27.130 27.130 24 0.48 m/h 0 %
08:00:00 clear sky 32.580 32.580 32.580 18 1.47 m/h 0 %
11:00:00 clear sky 36.460 36.460 36.460 15 3.71 m/h 0 %
14:00:00 clear sky 38.890 38.890 38.890 12 4.12 m/h 0 %
17:00:00 clear sky 38.430 38.430 38.430 12 4.69 m/h 0 %
20:00:00 clear sky 33.750 33.750 33.750 17 2.62 m/h 0 %
23:00:00 clear sky 32.110 32.110 32.110 18 2.1 m/h 0 %
27-May-2022 (Fri)
02:00:00 clear sky 30.570 30.570 30.570 17 1.04 m/h 0 %
05:00:00 clear sky 28.270 28.270 28.270 21 1.33 m/h 0 %
08:00:00 clear sky 34.360 34.360 34.360 16 1.29 m/h 0 %
11:00:00 clear sky 39.100 39.100 39.100 11 3.28 m/h 0 %
14:00:00 clear sky 41.040 41.040 41.040 9 3.23 m/h 0 %
17:00:00 clear sky 41.050 41.050 41.050 9 3.45 m/h 0 %
20:00:00 clear sky 36.260 36.260 36.260 13 3.14 m/h 0 %
23:00:00 clear sky 34.150 34.150 34.150 16 2.63 m/h 0 %
28-May-2022 (Sat)
02:00:00 clear sky 32.340 32.340 32.340 21 3.1 m/h 0 %
05:00:00 clear sky 29.670 29.670 29.670 22 3.14 m/h 0 %
08:00:00 clear sky 34.090 34.090 34.090 17 6.89 m/h 0 %
11:00:00 clear sky 39.230 39.230 39.230 15 5.14 m/h 0 %
14:00:00 clear sky 42.190 42.190 42.190 13 6.47 m/h 0 %
17:00:00 clear sky 41.100 41.100 41.100 7 7.17 m/h 0 %
20:00:00 broken clouds 33.660 33.660 33.660 20 8.29 m/h 0 %
23:00:00 broken clouds 31.160 31.160 31.160 26 5.48 m/h 0 %
29-May-2022 (Sun)
02:00:00 clear sky 29.120 29.120 29.120 29 2.51 m/h 0 %
05:00:00 clear sky 27.140 27.140 27.140 33 2.74 m/h 0 %
08:00:00 few clouds 32.000 32.000 32.000 27 5.62 m/h 0 %

Famous Cities (61)